Silver Shadow — C6FN6 — position and weather

sailwx.info

Track history (hours):
 
Tides and Currents Weather Stations Pressure Air Temp Water Temp Dewpoint Dewpoint Depression Visibility Wind Speed Wind Dir Waves Ship Positions

Silver Shadow

Operator: V Ships Leisure SAM

Last reported at 2019-Aug-21 00:57 UTC. Time now 2019-Aug-24 20:14 UTC.
Position N 36°39' W 007°04'.

Length 186 m; draft 6.1 m.

Type: Passenger vessel. MMSI: 308628000.

Date/timePositionNaut miles runAvg speedWind from/ knotsBaromVisibWave heightAir tempDewpointWater temp
2019-Aug-21 00:57N 36°39' W 007°04'41 9.5
2019-Aug-20 20:35N 36°50' W 007°54'1 9.8
2019-Aug-20 20:30N 36°50' W 007°55'5 9.8
2019-Aug-20 20:00N 36°52' W 008°00'5 9.8
2019-Aug-20 19:30N 36°53' W 008°06'5 9.8
2019-Aug-20 19:00N 36°54' W 008°12'610.0
2019-Aug-20 18:27N 36°56' W 008°19'410.1
2019-Aug-20 18:00N 36°57' W 008°24'5 9.9
2019-Aug-20 17:28N 36°59' W 008°30'510.1
2019-Aug-20 17:00N 37°04' W 008°32'4 1.8
2019-Aug-20 14:50N 37°08' W 008°32'0 0.0
2019-Aug-20 14:26N 37°08' W 008°32'0 0.0
2019-Aug-20 13:59N 37°08' W 008°32'0 0.0
2019-Aug-20 13:26N 37°08' W 008°32'0 0.0
2019-Aug-20 12:29N 37°08' W 008°32'0 0.0
2019-Aug-20 11:56N 37°08' W 008°32'0 0.0
2019-Aug-20 11:26N 37°08' W 008°32'0 0.0
2019-Aug-20 10:59N 37°08' W 008°32'0 0.0
2019-Aug-20 10:26N 37°08' W 008°32'0 0.0
2019-Aug-20 09:56N 37°08' W 008°32'0 0.0
2019-Aug-20 09:26N 37°08' W 008°32'0 0.0
2019-Aug-20 08:56N 37°08' W 008°32'0 0.0
2019-Aug-20 08:29N 37°08' W 008°32'0 0.0
2019-Aug-20 07:56N 37°08' W 008°32'0 0.0
2019-Aug-20 07:26N 37°08' W 008°32'0 0.0
2019-Aug-20 06:56N 37°08' W 008°32'0 0.0
2019-Aug-20 06:26N 37°08' W 008°32'0 0.0
2019-Aug-20 05:58N 37°08' W 008°32'1 1.3
2019-Aug-20 05:30N 37°07' W 008°31'4 8.3
2019-Aug-20 05:01N 37°03' W 008°33'611.5
2019-Aug-20 04:30N 36°58' W 008°36'612.4
2019-Aug-20 04:00N 36°53' W 008°40'713.8
2019-Aug-20 03:30N 36°51' W 008°49'713.5
2019-Aug-20 03:00N 36°49' W 008°57'712.7
2019-Aug-20 02:26N 36°50' W 009°05'1612.7
2019-Aug-20 01:10N 37°05' W 009°14'413.2
2019-Aug-20 00:50N 37°10' W 009°14'513.0
2019-Aug-20 00:26N 37°15' W 009°15'613.5
2019-Aug-20 00:00N 37°21' W 009°15'713.5
2019-Aug-19 23:30N 37°27' W 009°17'713.5
2019-Aug-19 23:01N 37°34' W 009°18'713.2
2019-Aug-19 22:30N 37°40' W 009°18'713.1
2019-Aug-19 22:00N 37°47' W 009°19'713.7
2019-Aug-19 21:31N 37°54' W 009°20'713.7
2019-Aug-19 21:00N 38°01' W 009°21'713.6
2019-Aug-19 20:30N 38°07' W 009°22'714.0
2019-Aug-19 20:00N 38°14' W 009°23'713.5
2019-Aug-19 19:30N 38°21' W 009°24'713.8
2019-Aug-19 19:00N 38°28' W 009°25'713.9
2019-Aug-19 18:30N 38°35' W 009°25'714.2
2019-Aug-19 18:01N 38°40' W 009°19'510.9
2019-Aug-19 17:30N 38°41' W 009°12'4 7.3
2019-Aug-19 16:59N 38°43' W 009°08'0 0.0
2019-Aug-19 16:29N 38°43' W 009°08'0 0.0
2019-Aug-19 15:59N 38°43' W 009°08'0 0.0
2019-Aug-19 15:29N 38°43' W 009°08'0 0.0
2019-Aug-19 14:59N 38°43' W 009°08'0 0.0
2019-Aug-19 14:29N 38°43' W 009°08'0 0.0
2019-Aug-19 13:59N 38°43' W 009°08'0 0.0
2019-Aug-19 13:29N 38°43' W 009°08'0 0.0
2019-Aug-19 12:59N 38°43' W 009°08'0 0.0
2019-Aug-19 12:29N 38°43' W 009°08'0 0.0
2019-Aug-19 11:59N 38°43' W 009°08'0 0.0
2019-Aug-19 11:29N 38°43' W 009°08'0 0.0
2019-Aug-19 10:59N 38°43' W 009°08'0 0.0
2019-Aug-19 10:29N 38°43' W 009°08'0 0.0
2019-Aug-19 09:59N 38°43' W 009°08'0 0.0
2019-Aug-19 09:29N 38°43' W 009°08'0 0.0
2019-Aug-19 08:59N 38°43' W 009°08'0 0.0
2019-Aug-19 08:29N 38°43' W 009°08'0 0.0
2019-Aug-19 07:59N 38°43' W 009°08'0 0.0
2019-Aug-19 07:29N 38°43' W 009°08'0 0.0
2019-Aug-19 06:59N 38°43' W 009°08'0 0.0
2019-Aug-19 06:29N 38°43' W 009°08'0 0.0
2019-Aug-19 05:59N 38°43' W 009°08'0 0.0
2019-Aug-19 05:29N 38°43' W 009°08'0 0.0
2019-Aug-19 04:59N 38°43' W 009°08'0 0.0
2019-Aug-19 04:29N 38°43' W 009°08'0 0.0
2019-Aug-19 03:59N 38°43' W 009°08'0 0.0
2019-Aug-19 03:29N 38°43' W 009°08'0 0.0
2019-Aug-19 02:59N 38°43' W 009°08'0 0.0
2019-Aug-19 02:29N 38°43' W 009°08'0 0.0
2019-Aug-19 01:59N 38°43' W 009°08'0 0.0
2019-Aug-19 01:29N 38°43' W 009°08'0 0.0
2019-Aug-19 00:59N 38°43' W 009°08'0 0.0
2019-Aug-19 00:29N 38°43' W 009°08'0 0.0
2019-Aug-18 23:59N 38°43' W 009°08'0 0.0
2019-Aug-18 23:29N 38°43' W 009°08'0 0.0
2019-Aug-18 22:59N 38°43' W 009°08'0 0.0
2019-Aug-18 22:29N 38°43' W 009°08'0 0.0
2019-Aug-18 21:59N 38°43' W 009°08'0 0.0
2019-Aug-18 21:29N 38°43' W 009°08'0 0.0
2019-Aug-18 20:59N 38°43' W 009°08'0 0.0
2019-Aug-18 20:29N 38°43' W 009°08'0 0.0
2019-Aug-18 19:59N 38°43' W 009°08'0 0.0
2019-Aug-18 19:29N 38°43' W 009°08'0 0.0
2019-Aug-18 18:59N 38°43' W 009°08'0 0.0
2019-Aug-18 18:29N 38°43' W 009°08'0 0.0
2019-Aug-18 17:59N 38°43' W 009°08'0 0.0
2019-Aug-18 17:29N 38°43' W 009°08'0 0.0
2019-Aug-18 16:59N 38°43' W 009°08'0 0.0
2019-Aug-18 16:29N 38°43' W 009°08'0 0.0
2019-Aug-18 15:59N 38°43' W 009°08'0 0.0
2019-Aug-18 15:21N 38°43' W 009°08'0 0.0
2019-Aug-18 15:00N 38°43' W 009°08'0 0.0
2019-Aug-18 14:29N 38°43' W 009°08'0 0.0
2019-Aug-18 13:59N 38°43' W 009°08'0 0.0
2019-Aug-18 13:29N 38°43' W 009°08'0 0.0
2019-Aug-18 12:59N 38°43' W 009°08'0 0.0
2019-Aug-18 12:26N 38°43' W 009°08'0 0.0
2019-Aug-18 11:59N 38°43' W 009°08'0 0.0
2019-Aug-18 11:29N 38°43' W 009°08'0 0.0
2019-Aug-18 10:59N 38°43' W 009°08'0 0.0
2019-Aug-18 10:29N 38°43' W 009°08'0 0.0
2019-Aug-18 09:58N 38°43' W 009°08'0 0.0
2019-Aug-18 09:28N 38°43' W 009°08'0 0.0
2019-Aug-18 08:58N 38°43' W 009°08'0 0.0
2019-Aug-18 08:28N 38°43' W 009°08'0 0.0
2019-Aug-18 07:58N 38°43' W 009°08'0 0.0
2019-Aug-18 06:58N 38°43' W 009°08'0 0.0
2019-Aug-18 06:28N 38°43' W 009°08'1 1.1
2019-Aug-18 06:00N 38°42' W 009°08'4 9.0
2019-Aug-18 05:31N 38°41' W 009°14'4 8.6
2019-Aug-18 05:00N 38°40' W 009°19'612.1
2019-Aug-18 04:31N 38°36' W 009°24'612.7
2019-Aug-18 04:01N 38°29' W 009°25'713.1
2019-Aug-18 03:31N 38°23' W 009°25'612.9
2019-Aug-18 03:01N 38°16' W 009°25'714.9
2019-Aug-18 02:31N 38°09' W 009°24'714.2
2019-Aug-18 02:01N 38°02' W 009°24'714.6
2019-Aug-18 01:31N 37°55' W 009°24'714.5
2019-Aug-18 01:00N 37°47' W 009°23'714.7
2019-Aug-18 00:31N 37°40' W 009°23'714.8
2019-Aug-18 00:01N 37°33' W 009°23'814.8
2019-Aug-17 23:30N 37°25' W 009°23'714.6
2019-Aug-17 23:00N 37°18' W 009°22'714.5
2019-Aug-17 22:29N 37°10' W 009°22'714.3
2019-Aug-17 22:00N 37°03' W 009°22'714.5
2019-Aug-17 21:30N 36°56' W 009°21'714.0
2019-Aug-17 21:00N 36°50' W 009°17'714.1
2019-Aug-17 20:31N 36°45' W 009°11'714.0
2019-Aug-17 20:00N 36°42' W 009°03'713.9
2019-Aug-17 19:30N 36°41' W 008°54'714.2
2019-Aug-17 19:00N 36°44' W 008°46'713.8
2019-Aug-17 18:30N 36°47' W 008°39'1514.6
2019-Aug-17 17:30N 37°01' W 008°34'611.9
2019-Aug-17 17:00N 37°07' W 008°31'1 1.1
2019-Aug-17 16:28N 37°08' W 008°32'0 0.0
2019-Aug-17 15:58N 37°08' W 008°32'0 0.0
2019-Aug-17 15:28N 37°08' W 008°32'0 0.0
2019-Aug-17 14:52N 37°08' W 008°32'0 0.0
2019-Aug-17 14:13N 37°08' W 008°32'0 0.0
2019-Aug-17 13:58N 37°08' W 008°32'0 0.0
2019-Aug-17 13:28N 37°08' W 008°32'0 0.0
2019-Aug-17 12:52N 37°08' W 008°32'0 0.0
2019-Aug-17 12:22N 37°08' W 008°32'0 0.0
2019-Aug-17 11:16N 37°08' W 008°32'0 0.0
2019-Aug-17 10:28N 37°08' W 008°32'0 0.0
2019-Aug-17 10:00N 37°08' W 008°32'0 0.0
2019-Aug-17 09:25N 37°08' W 008°32'0 0.0
2019-Aug-17 09:00N 37°08' W 008°32'0 0.0
2019-Aug-17 08:30N 37°08' W 008°32'0 0.1
2019-Aug-17 08:00N 37°08' W 008°32'3 6.0
2019-Aug-17 07:30N 37°05' W 008°32'510.1
2019-Aug-17 07:00N 36°60' W 008°31'611.2
2019-Aug-17 06:30N 36°56' W 008°25'611.4
2019-Aug-17 06:00N 36°54' W 008°18'611.8
2019-Aug-17 05:30N 36°53' W 008°11'611.7
2019-Aug-17 05:00N 36°52' W 008°04'611.4
2019-Aug-17 04:30N 36°50' W 007°57'611.2
2019-Aug-17 04:00N 36°49' W 007°50'76 4.9
2019-Aug-16 12:19N 36°32' W 006°17'288 5.6
2019-Aug-14 09:03N 37°42' W 000°27'110.9
2019-Aug-14 08:56N 37°43' W 000°26'811.1
2019-Aug-14 08:12N 37°49' W 000°21'94 9.1
2019-Aug-13 21:54N 39°23' W 000°13'511.7
2019-Aug-13 21:29N 39°26' W 000°18'2 3.5
2019-Aug-13 21:00N 39°27' W 000°19'0 0.0
2019-Aug-13 20:30N 39°27' W 000°19'0 0.0
2019-Aug-13 20:00N 39°27' W 000°19'0 0.0
2019-Aug-13 19:30N 39°27' W 000°19'0 0.0
2019-Aug-13 19:00N 39°27' W 000°19'0 0.0
2019-Aug-13 18:30N 39°27' W 000°19'0 0.0
2019-Aug-13 18:00N 39°27' W 000°19'0 0.0
2019-Aug-13 17:30N 39°27' W 000°19'0 0.0
2019-Aug-13 17:00N 39°27' W 000°19'0 0.0
2019-Aug-13 16:30N 39°27' W 000°19'0 0.0
2019-Aug-13 16:00N 39°27' W 000°19'0 0.0
2019-Aug-13 15:27N 39°27' W 000°19'0 0.0
2019-Aug-13 15:00N 39°27' W 000°19'0 0.0
2019-Aug-13 14:30N 39°27' W 000°19'0 0.0
2019-Aug-13 13:57N 39°27' W 000°19'0 0.0
2019-Aug-13 13:30N 39°27' W 000°19'0 0.0
2019-Aug-13 12:57N 39°27' W 000°19'0 0.0
2019-Aug-13 12:24N 39°27' W 000°19'0 0.0
2019-Aug-13 12:00N 39°27' W 000°19'0 0.0
2019-Aug-13 11:21N 39°27' W 000°19'0 0.0
2019-Aug-13 10:57N 39°27' W 000°19'0 0.0
2019-Aug-13 10:30N 39°27' W 000°19'0 0.0
2019-Aug-13 10:00N 39°27' W 000°19'0 0.0
2019-Aug-13 09:27N 39°27' W 000°19'0 0.0
2019-Aug-13 09:00N 39°27' W 000°19'0 0.0
2019-Aug-13 08:30N 39°27' W 000°19'0 0.0
2019-Aug-13 08:00N 39°27' W 000°19'0 0.0
2019-Aug-13 07:27N 39°27' W 000°19'0 0.0
2019-Aug-13 06:57N 39°27' W 000°19'0 0.0
2019-Aug-13 06:30N 39°27' W 000°19'2 4.9
2019-Aug-13 06:00N 39°25' W 000°17'711.3
2019-Aug-13 05:24N 39°25' W 000°09'11214.5
2019-Aug-12 21:43N 39°25' E 002°16'316.6
2019-Aug-12 21:30N 39°25' E 002°21'816.5
2019-Aug-12 21:00N 39°25' E 002°31'815.2
2019-Aug-12 20:30N 39°31' E 002°38'2 3.9
2019-Aug-12 20:00N 39°33' E 002°38'0 0.0
2019-Aug-12 19:29N 39°33' E 002°38'0 0.0
2019-Aug-12 18:59N 39°33' E 002°38'0 0.0
2019-Aug-12 18:29N 39°33' E 002°38'0 0.0
2019-Aug-12 17:59N 39°33' E 002°38'0 0.0
2019-Aug-12 17:29N 39°33' E 002°38'0 0.0
2019-Aug-12 16:59N 39°33' E 002°38'0 0.0
2019-Aug-12 16:29N 39°33' E 002°38'0 0.0
2019-Aug-12 15:59N 39°33' E 002°38'0 0.0
2019-Aug-12 15:29N 39°33' E 002°38'0 0.0
2019-Aug-12 14:59N 39°33' E 002°38'0 0.0
2019-Aug-12 14:26N 39°33' E 002°38'0 0.0
2019-Aug-12 13:59N 39°33' E 002°38'0 0.0
2019-Aug-12 13:29N 39°33' E 002°38'0 0.0
2019-Aug-12 12:59N 39°33' E 002°38'0 0.0
2019-Aug-12 12:29N 39°33' E 002°38'0 0.0
2019-Aug-12 11:59N 39°33' E 002°38'0 0.0
2019-Aug-12 11:29N 39°33' E 002°38'0 0.0
2019-Aug-12 10:59N 39°33' E 002°38'0 0.0
2019-Aug-12 10:29N 39°33' E 002°38'0 0.0
2019-Aug-12 09:59N 39°33' E 002°38'0 0.0
2019-Aug-12 09:29N 39°33' E 002°38'0 0.0
2019-Aug-12 08:59N 39°33' E 002°38'0 0.0
2019-Aug-12 08:29N 39°33' E 002°38'0 0.0
2019-Aug-12 07:59N 39°33' E 002°38'0 0.0
2019-Aug-12 07:29N 39°33' E 002°38'0 0.0
2019-Aug-12 06:59N 39°33' E 002°38'0 0.0
2019-Aug-12 06:29N 39°33' E 002°38'0 0.0
2019-Aug-12 06:00N 39°33' E 002°38'1 1.7
2019-Aug-12 05:30N 39°33' E 002°39'4 8.1
2019-Aug-12 05:00N 39°29' E 002°36'5 9.0
2019-Aug-12 04:30N 39°26' E 002°33'611.1
2019-Aug-12 04:00N 39°25' E 002°26'610.5
2019-Aug-12 03:26N 39°27' E 002°19'9010.3
2019-Aug-11 18:41N 40°57' E 002°13'210.4
2019-Aug-11 18:30N 40°59' E 002°13'510.6
2019-Aug-11 18:00N 41°04' E 002°13'510.9
2019-Aug-11 17:30N 41°10' E 002°13'510.9
2019-Aug-11 17:00N 41°15' E 002°14'510.1
2019-Aug-11 16:30N 41°20' E 002°13'3 5.4
2019-Aug-11 16:00N 41°22' E 002°11'0 0.0
2019-Aug-11 15:30N 41°22' E 002°11'0 0.0
2019-Aug-11 15:00N 41°22' E 002°11'0 0.0
2019-Aug-11 14:30N 41°22' E 002°11'0 0.0
2019-Aug-11 14:00N 41°22' E 002°11'0 0.0
2019-Aug-11 13:30N 41°22' E 002°11'0 0.0
2019-Aug-11 13:00N 41°22' E 002°11'0 0.0
2019-Aug-11 12:30N 41°22' E 002°11'0 0.0
2019-Aug-11 12:00N 41°22' E 002°11'0 0.0
2019-Aug-11 11:30N 41°22' E 002°11'0 0.0
2019-Aug-11 11:00N 41°22' E 002°11'0 0.0
2019-Aug-11 10:30N 41°22' E 002°11'0 0.0
2019-Aug-11 10:00N 41°22' E 002°11'0 0.0
2019-Aug-11 09:30N 41°22' E 002°11'0 0.0
2019-Aug-11 09:00N 41°22' E 002°11'0 0.0
2019-Aug-11 08:30N 41°22' E 002°11'0 0.0
2019-Aug-11 08:00N 41°22' E 002°11'0 0.0
2019-Aug-11 07:30N 41°22' E 002°11'0 0.0
2019-Aug-11 06:57N 41°22' E 002°11'0 0.0
2019-Aug-11 06:30N 41°22' E 002°11'0 0.0
2019-Aug-11 06:00N 41°22' E 002°11'0 0.0
2019-Aug-11 05:30N 41°22' E 002°11'0 0.0
2019-Aug-11 05:00N 41°22' E 002°11'0 0.0
2019-Aug-11 04:30N 41°22' E 002°11'0 0.0
2019-Aug-11 04:00N 41°22' E 002°11'0 0.0
2019-Aug-11 03:30N 41°22' E 002°11'0 0.0
2019-Aug-11 03:00N 41°22' E 002°11'0 0.0
2019-Aug-11 02:30N 41°22' E 002°11'0 0.0
2019-Aug-11 02:00N 41°22' E 002°11'0 0.0
2019-Aug-11 01:30N 41°22' E 002°11'0 0.0
2019-Aug-11 01:00N 41°22' E 002°11'  
Track history (hours):
 
Tides and Currents Weather Stations Pressure Air Temp Water Temp Dewpoint Dewpoint Depression Visibility Wind Speed Wind Dir Waves Ship Positions

Silver Shadow

Operator: V Ships Leisure SAM

Last reported at 2019-Aug-21 00:57 UTC. Time now 2019-Aug-24 20:14 UTC.
Position N 36°39' W 007°04'.

Length 186 m; draft 6.1 m.

Type: Passenger vessel. MMSI: 308628000.

Date/timePositionNaut miles runAvg speedWind from/ knotsBaromVisibWave heightAir tempDewpointWater temp
2019-Aug-21 00:57N 36°39' W 007°04'41 9.5
2019-Aug-20 20:35N 36°50' W 007°54'1 9.8
2019-Aug-20 20:30N 36°50' W 007°55'5 9.8
2019-Aug-20 20:00N 36°52' W 008°00'5 9.8
2019-Aug-20 19:30N 36°53' W 008°06'5 9.8
2019-Aug-20 19:00N 36°54' W 008°12'610.0
2019-Aug-20 18:27N 36°56' W 008°19'410.1
2019-Aug-20 18:00N 36°57' W 008°24'5 9.9
2019-Aug-20 17:28N 36°59' W 008°30'510.1
2019-Aug-20 17:00N 37°04' W 008°32'4 1.8
2019-Aug-20 14:50N 37°08' W 008°32'0 0.0
2019-Aug-20 14:26N 37°08' W 008°32'0 0.0
2019-Aug-20 13:59N 37°08' W 008°32'0 0.0
2019-Aug-20 13:26N 37°08' W 008°32'0 0.0
2019-Aug-20 12:29N 37°08' W 008°32'0 0.0
2019-Aug-20 11:56N 37°08' W 008°32'0 0.0
2019-Aug-20 11:26N 37°08' W 008°32'0 0.0
2019-Aug-20 10:59N 37°08' W 008°32'0 0.0
2019-Aug-20 10:26N 37°08' W 008°32'0 0.0
2019-Aug-20 09:56N 37°08' W 008°32'0 0.0
2019-Aug-20 09:26N 37°08' W 008°32'0 0.0
2019-Aug-20 08:56N 37°08' W 008°32'0 0.0
2019-Aug-20 08:29N 37°08' W 008°32'0 0.0
2019-Aug-20 07:56N 37°08' W 008°32'0 0.0
2019-Aug-20 07:26N 37°08' W 008°32'0 0.0
2019-Aug-20 06:56N 37°08' W 008°32'0 0.0
2019-Aug-20 06:26N 37°08' W 008°32'0 0.0
2019-Aug-20 05:58N 37°08' W 008°32'1 1.3
2019-Aug-20 05:30N 37°07' W 008°31'4 8.3
2019-Aug-20 05:01N 37°03' W 008°33'611.5
2019-Aug-20 04:30N 36°58' W 008°36'612.4
2019-Aug-20 04:00N 36°53' W 008°40'713.8
2019-Aug-20 03:30N 36°51' W 008°49'713.5
2019-Aug-20 03:00N 36°49' W 008°57'712.7
2019-Aug-20 02:26N 36°50' W 009°05'1612.7
2019-Aug-20 01:10N 37°05' W 009°14'413.2
2019-Aug-20 00:50N 37°10' W 009°14'513.0
2019-Aug-20 00:26N 37°15' W 009°15'613.5
2019-Aug-20 00:00N 37°21' W 009°15'713.5
2019-Aug-19 23:30N 37°27' W 009°17'713.5
2019-Aug-19 23:01N 37°34' W 009°18'713.2
2019-Aug-19 22:30N 37°40' W 009°18'713.1
2019-Aug-19 22:00N 37°47' W 009°19'713.7
2019-Aug-19 21:31N 37°54' W 009°20'713.7
2019-Aug-19 21:00N 38°01' W 009°21'713.6
2019-Aug-19 20:30N 38°07' W 009°22'714.0
2019-Aug-19 20:00N 38°14' W 009°23'713.5
2019-Aug-19 19:30N 38°21' W 009°24'713.8
2019-Aug-19 19:00N 38°28' W 009°25'713.9
2019-Aug-19 18:30N 38°35' W 009°25'714.2
2019-Aug-19 18:01N 38°40' W 009°19'510.9
2019-Aug-19 17:30N 38°41' W 009°12'4 7.3
2019-Aug-19 16:59N 38°43' W 009°08'0 0.0
2019-Aug-19 16:29N 38°43' W 009°08'0 0.0
2019-Aug-19 15:59N 38°43' W 009°08'0 0.0
2019-Aug-19 15:29N 38°43' W 009°08'0 0.0
2019-Aug-19 14:59N 38°43' W 009°08'0 0.0
2019-Aug-19 14:29N 38°43' W 009°08'0 0.0
2019-Aug-19 13:59N 38°43' W 009°08'0 0.0
2019-Aug-19 13:29N 38°43' W 009°08'0 0.0
2019-Aug-19 12:59N 38°43' W 009°08'0 0.0
2019-Aug-19 12:29N 38°43' W 009°08'0 0.0
2019-Aug-19 11:59N 38°43' W 009°08'0 0.0
2019-Aug-19 11:29N 38°43' W 009°08'0 0.0
2019-Aug-19 10:59N 38°43' W 009°08'0 0.0
2019-Aug-19 10:29N 38°43' W 009°08'0 0.0
2019-Aug-19 09:59N 38°43' W 009°08'0 0.0
2019-Aug-19 09:29N 38°43' W 009°08'0 0.0
2019-Aug-19 08:59N 38°43' W 009°08'0 0.0
2019-Aug-19 08:29N 38°43' W 009°08'0 0.0
2019-Aug-19 07:59N 38°43' W 009°08'0 0.0
2019-Aug-19 07:29N 38°43' W 009°08'0 0.0
2019-Aug-19 06:59N 38°43' W 009°08'0 0.0
2019-Aug-19 06:29N 38°43' W 009°08'0 0.0
2019-Aug-19 05:59N 38°43' W 009°08'0 0.0
2019-Aug-19 05:29N 38°43' W 009°08'0 0.0
2019-Aug-19 04:59N 38°43' W 009°08'0 0.0
2019-Aug-19 04:29N 38°43' W 009°08'0 0.0
2019-Aug-19 03:59N 38°43' W 009°08'0 0.0
2019-Aug-19 03:29N 38°43' W 009°08'0 0.0
2019-Aug-19 02:59N 38°43' W 009°08'0 0.0
2019-Aug-19 02:29N 38°43' W 009°08'0 0.0
2019-Aug-19 01:59N 38°43' W 009°08'0 0.0
2019-Aug-19 01:29N 38°43' W 009°08'0 0.0
2019-Aug-19 00:59N 38°43' W 009°08'0 0.0
2019-Aug-19 00:29N 38°43' W 009°08'0 0.0
2019-Aug-18 23:59N 38°43' W 009°08'0 0.0
2019-Aug-18 23:29N 38°43' W 009°08'0 0.0
2019-Aug-18 22:59N 38°43' W 009°08'0 0.0
2019-Aug-18 22:29N 38°43' W 009°08'0 0.0
2019-Aug-18 21:59N 38°43' W 009°08'0 0.0
2019-Aug-18 21:29N 38°43' W 009°08'0 0.0
2019-Aug-18 20:59N 38°43' W 009°08'0 0.0
2019-Aug-18 20:29N 38°43' W 009°08'0 0.0
2019-Aug-18 19:59N 38°43' W 009°08'0 0.0
2019-Aug-18 19:29N 38°43' W 009°08'0 0.0
2019-Aug-18 18:59N 38°43' W 009°08'0 0.0
2019-Aug-18 18:29N 38°43' W 009°08'0 0.0
2019-Aug-18 17:59N 38°43' W 009°08'0 0.0
2019-Aug-18 17:29N 38°43' W 009°08'0 0.0
2019-Aug-18 16:59N 38°43' W 009°08'0 0.0
2019-Aug-18 16:29N 38°43' W 009°08'0 0.0
2019-Aug-18 15:59N 38°43' W 009°08'0 0.0
2019-Aug-18 15:21N 38°43' W 009°08'0 0.0
2019-Aug-18 15:00N 38°43' W 009°08'0 0.0
2019-Aug-18 14:29N 38°43' W 009°08'0 0.0
2019-Aug-18 13:59N 38°43' W 009°08'0 0.0
2019-Aug-18 13:29N 38°43' W 009°08'0 0.0
2019-Aug-18 12:59N 38°43' W 009°08'0 0.0
2019-Aug-18 12:26N 38°43' W 009°08'0 0.0
2019-Aug-18 11:59N 38°43' W 009°08'0 0.0
2019-Aug-18 11:29N 38°43' W 009°08'0 0.0
2019-Aug-18 10:59N 38°43' W 009°08'0 0.0
2019-Aug-18 10:29N 38°43' W 009°08'0 0.0
2019-Aug-18 09:58N 38°43' W 009°08'0 0.0
2019-Aug-18 09:28N 38°43' W 009°08'0 0.0
2019-Aug-18 08:58N 38°43' W 009°08'0 0.0
2019-Aug-18 08:28N 38°43' W 009°08'0 0.0
2019-Aug-18 07:58N 38°43' W 009°08'0 0.0
2019-Aug-18 06:58N 38°43' W 009°08'0 0.0
2019-Aug-18 06:28N 38°43' W 009°08'1 1.1
2019-Aug-18 06:00N 38°42' W 009°08'4 9.0
2019-Aug-18 05:31N 38°41' W 009°14'4 8.6
2019-Aug-18 05:00N 38°40' W 009°19'612.1
2019-Aug-18 04:31N 38°36' W 009°24'612.7
2019-Aug-18 04:01N 38°29' W 009°25'713.1
2019-Aug-18 03:31N 38°23' W 009°25'612.9
2019-Aug-18 03:01N 38°16' W 009°25'714.9
2019-Aug-18 02:31N 38°09' W 009°24'714.2
2019-Aug-18 02:01N 38°02' W 009°24'714.6
2019-Aug-18 01:31N 37°55' W 009°24'714.5
2019-Aug-18 01:00N 37°47' W 009°23'714.7
2019-Aug-18 00:31N 37°40' W 009°23'714.8
2019-Aug-18 00:01N 37°33' W 009°23'814.8
2019-Aug-17 23:30N 37°25' W 009°23'714.6
2019-Aug-17 23:00N 37°18' W 009°22'714.5
2019-Aug-17 22:29N 37°10' W 009°22'714.3
2019-Aug-17 22:00N 37°03' W 009°22'714.5
2019-Aug-17 21:30N 36°56' W 009°21'714.0
2019-Aug-17 21:00N 36°50' W 009°17'714.1
2019-Aug-17 20:31N 36°45' W 009°11'714.0
2019-Aug-17 20:00N 36°42' W 009°03'713.9
2019-Aug-17 19:30N 36°41' W 008°54'714.2
2019-Aug-17 19:00N 36°44' W 008°46'713.8
2019-Aug-17 18:30N 36°47' W 008°39'1514.6
2019-Aug-17 17:30N 37°01' W 008°34'611.9
2019-Aug-17 17:00N 37°07' W 008°31'1 1.1
2019-Aug-17 16:28N 37°08' W 008°32'0 0.0
2019-Aug-17 15:58N 37°08' W 008°32'0 0.0
2019-Aug-17 15:28N 37°08' W 008°32'0 0.0
2019-Aug-17 14:52N 37°08' W 008°32'0 0.0
2019-Aug-17 14:13N 37°08' W 008°32'0 0.0
2019-Aug-17 13:58N 37°08' W 008°32'0 0.0
2019-Aug-17 13:28N 37°08' W 008°32'0 0.0
2019-Aug-17 12:52N 37°08' W 008°32'0 0.0
2019-Aug-17 12:22N 37°08' W 008°32'0 0.0
2019-Aug-17 11:16N 37°08' W 008°32'0 0.0
2019-Aug-17 10:28N 37°08' W 008°32'0 0.0
2019-Aug-17 10:00N 37°08' W 008°32'0 0.0
2019-Aug-17 09:25N 37°08' W 008°32'0 0.0
2019-Aug-17 09:00N 37°08' W 008°32'0 0.0
2019-Aug-17 08:30N 37°08' W 008°32'0 0.1
2019-Aug-17 08:00N 37°08' W 008°32'3 6.0
2019-Aug-17 07:30N 37°05' W 008°32'510.1
2019-Aug-17 07:00N 36°60' W 008°31'611.2
2019-Aug-17 06:30N 36°56' W 008°25'611.4
2019-Aug-17 06:00N 36°54' W 008°18'611.8
2019-Aug-17 05:30N 36°53' W 008°11'611.7
2019-Aug-17 05:00N 36°52' W 008°04'611.4
2019-Aug-17 04:30N 36°50' W 007°57'611.2
2019-Aug-17 04:00N 36°49' W 007°50'76 4.9
2019-Aug-16 12:19N 36°32' W 006°17'288 5.6
2019-Aug-14 09:03N 37°42' W 000°27'110.9
2019-Aug-14 08:56N 37°43' W 000°26'811.1
2019-Aug-14 08:12N 37°49' W 000°21'94 9.1
2019-Aug-13 21:54N 39°23' W 000°13'511.7
2019-Aug-13 21:29N 39°26' W 000°18'2 3.5
2019-Aug-13 21:00N 39°27' W 000°19'0 0.0
2019-Aug-13 20:30N 39°27' W 000°19'0 0.0
2019-Aug-13 20:00N 39°27' W 000°19'0 0.0
2019-Aug-13 19:30N 39°27' W 000°19'0 0.0
2019-Aug-13 19:00N 39°27' W 000°19'0 0.0
2019-Aug-13 18:30N 39°27' W 000°19'0 0.0
2019-Aug-13 18:00N 39°27' W 000°19'0 0.0
2019-Aug-13 17:30N 39°27' W 000°19'0 0.0
2019-Aug-13 17:00N 39°27' W 000°19'0 0.0
2019-Aug-13 16:30N 39°27' W 000°19'0 0.0
2019-Aug-13 16:00N 39°27' W 000°19'0 0.0
2019-Aug-13 15:27N 39°27' W 000°19'0 0.0
2019-Aug-13 15:00N 39°27' W 000°19'0 0.0
2019-Aug-13 14:30N 39°27' W 000°19'0 0.0
2019-Aug-13 13:57N 39°27' W 000°19'0 0.0
2019-Aug-13 13:30N 39°27' W 000°19'0 0.0
2019-Aug-13 12:57N 39°27' W 000°19'0 0.0
2019-Aug-13 12:24N 39°27' W 000°19'0 0.0
2019-Aug-13 12:00N 39°27' W 000°19'0 0.0
2019-Aug-13 11:21N 39°27' W 000°19'0 0.0
2019-Aug-13 10:57N 39°27' W 000°19'0 0.0
2019-Aug-13 10:30N 39°27' W 000°19'0 0.0
2019-Aug-13 10:00N 39°27' W 000°19'0 0.0
2019-Aug-13 09:27N 39°27' W 000°19'0 0.0
2019-Aug-13 09:00N 39°27' W 000°19'0 0.0
2019-Aug-13 08:30N 39°27' W 000°19'0 0.0
2019-Aug-13 08:00N 39°27' W 000°19'0 0.0
2019-Aug-13 07:27N 39°27' W 000°19'0 0.0
2019-Aug-13 06:57N 39°27' W 000°19'0 0.0
2019-Aug-13 06:30N 39°27' W 000°19'2 4.9
2019-Aug-13 06:00N 39°25' W 000°17'711.3
2019-Aug-13 05:24N 39°25' W 000°09'11214.5
2019-Aug-12 21:43N 39°25' E 002°16'316.6
2019-Aug-12 21:30N 39°25' E 002°21'816.5
2019-Aug-12 21:00N 39°25' E 002°31'815.2
2019-Aug-12 20:30N 39°31' E 002°38'2 3.9
2019-Aug-12 20:00N 39°33' E 002°38'0 0.0
2019-Aug-12 19:29N 39°33' E 002°38'0 0.0
2019-Aug-12 18:59N 39°33' E 002°38'0 0.0
2019-Aug-12 18:29N 39°33' E 002°38'0 0.0
2019-Aug-12 17:59N 39°33' E 002°38'0 0.0
2019-Aug-12 17:29N 39°33' E 002°38'0 0.0
2019-Aug-12 16:59N 39°33' E 002°38'0 0.0
2019-Aug-12 16:29N 39°33' E 002°38'0 0.0
2019-Aug-12 15:59N 39°33' E 002°38'0 0.0
2019-Aug-12 15:29N 39°33' E 002°38'0 0.0
2019-Aug-12 14:59N 39°33' E 002°38'0 0.0
2019-Aug-12 14:26N 39°33' E 002°38'0 0.0
2019-Aug-12 13:59N 39°33' E 002°38'0 0.0
2019-Aug-12 13:29N 39°33' E 002°38'0 0.0
2019-Aug-12 12:59N 39°33' E 002°38'0 0.0
2019-Aug-12 12:29N 39°33' E 002°38'0 0.0
2019-Aug-12 11:59N 39°33' E 002°38'0 0.0
2019-Aug-12 11:29N 39°33' E 002°38'0 0.0
2019-Aug-12 10:59N 39°33' E 002°38'0 0.0
2019-Aug-12 10:29N 39°33' E 002°38'0 0.0
2019-Aug-12 09:59N 39°33' E 002°38'0 0.0
2019-Aug-12 09:29N 39°33' E 002°38'0 0.0
2019-Aug-12 08:59N 39°33' E 002°38'0 0.0
2019-Aug-12 08:29N 39°33' E 002°38'0 0.0
2019-Aug-12 07:59N 39°33' E 002°38'0 0.0
2019-Aug-12 07:29N 39°33' E 002°38'0 0.0
2019-Aug-12 06:59N 39°33' E 002°38'0 0.0
2019-Aug-12 06:29N 39°33' E 002°38'0 0.0
2019-Aug-12 06:00N 39°33' E 002°38'1 1.7
2019-Aug-12 05:30N 39°33' E 002°39'4 8.1
2019-Aug-12 05:00N 39°29' E 002°36'5 9.0
2019-Aug-12 04:30N 39°26' E 002°33'611.1
2019-Aug-12 04:00N 39°25' E 002°26'610.5
2019-Aug-12 03:26N 39°27' E 002°19'9010.3
2019-Aug-11 18:41N 40°57' E 002°13'210.4
2019-Aug-11 18:30N 40°59' E 002°13'510.6
2019-Aug-11 18:00N 41°04' E 002°13'510.9
2019-Aug-11 17:30N 41°10' E 002°13'510.9
2019-Aug-11 17:00N 41°15' E 002°14'510.1
2019-Aug-11 16:30N 41°20' E 002°13'3 5.4
2019-Aug-11 16:00N 41°22' E 002°11'0 0.0
2019-Aug-11 15:30N 41°22' E 002°11'0 0.0
2019-Aug-11 15:00N 41°22' E 002°11'0 0.0
2019-Aug-11 14:30N 41°22' E 002°11'0 0.0
2019-Aug-11 14:00N 41°22' E 002°11'0 0.0
2019-Aug-11 13:30N 41°22' E 002°11'0 0.0
2019-Aug-11 13:00N 41°22' E 002°11'0 0.0
2019-Aug-11 12:30N 41°22' E 002°11'0 0.0
2019-Aug-11 12:00N 41°22' E 002°11'0 0.0
2019-Aug-11 11:30N 41°22' E 002°11'0 0.0
2019-Aug-11 11:00N 41°22' E 002°11'0 0.0
2019-Aug-11 10:30N 41°22' E 002°11'0 0.0
2019-Aug-11 10:00N 41°22' E 002°11'0 0.0
2019-Aug-11 09:30N 41°22' E 002°11'0 0.0
2019-Aug-11 09:00N 41°22' E 002°11'0 0.0
2019-Aug-11 08:30N 41°22' E 002°11'0 0.0
2019-Aug-11 08:00N 41°22' E 002°11'0 0.0
2019-Aug-11 07:30N 41°22' E 002°11'0 0.0
2019-Aug-11 06:57N 41°22' E 002°11'0 0.0
2019-Aug-11 06:30N 41°22' E 002°11'0 0.0
2019-Aug-11 06:00N 41°22' E 002°11'0 0.0
2019-Aug-11 05:30N 41°22' E 002°11'0 0.0
2019-Aug-11 05:00N 41°22' E 002°11'0 0.0
2019-Aug-11 04:30N 41°22' E 002°11'0 0.0
2019-Aug-11 04:00N 41°22' E 002°11'0 0.0
2019-Aug-11 03:30N 41°22' E 002°11'0 0.0
2019-Aug-11 03:00N 41°22' E 002°11'0 0.0
2019-Aug-11 02:30N 41°22' E 002°11'0 0.0
2019-Aug-11 02:00N 41°22' E 002°11'0 0.0
2019-Aug-11 01:30N 41°22' E 002°11'0 0.0
2019-Aug-11 01:00N 41°22' E 002°11'  

Dump ship's entire track history